sensor_id;sensor_type;location;lat;lon;timestamp;pressure;altitude;pressure_sealevel;temperature;humidity
70229;BME280;57617;51.988;5.854;2022-12-29T00:01:27;99597.66;;;13.31;75.23
70229;BME280;57617;51.988;5.854;2022-12-29T00:03:53;99595.22;;;13.29;74.97
70229;BME280;57617;51.988;5.854;2022-12-29T00:06:18;99563.44;;;13.15;74.96
70229;BME280;57617;51.988;5.854;2022-12-29T00:08:44;99576.66;;;13.31;74.85
70229;BME280;57617;51.988;5.854;2022-12-29T00:11:14;99569.03;;;13.28;75.04
70229;BME280;57617;51.988;5.854;2022-12-29T00:13:40;99564.34;;;13.34;74.95
70229;BME280;57617;51.988;5.854;2022-12-29T00:16:24;99564.34;;;13.34;74.81
70229;BME280;57617;51.988;5.854;2022-12-29T00:18:50;99559.41;;;13.36;74.69
70229;BME280;57617;51.988;5.854;2022-12-29T00:21:20;99553.16;;;13.35;74.51
70229;BME280;57617;51.988;5.854;2022-12-29T00:24:05;99544.97;;;13.35;74.63
70229;BME280;57617;51.988;5.854;2022-12-29T00:29:45;99546.59;;;13.36;74.97
70229;BME280;57617;51.988;5.854;2022-12-29T00:32:29;99553.66;;;13.37;74.70
70229;BME280;57617;51.988;5.854;2022-12-29T00:35:20;99538.41;;;13.36;74.33
70229;BME280;57617;51.988;5.854;2022-12-29T00:37:47;99535.97;;;13.35;74.50
70229;BME280;57617;51.988;5.854;2022-12-29T00:40:31;99538.94;;;13.38;74.90
70229;BME280;57617;51.988;5.854;2022-12-29T00:43:15;99528.03;;;13.38;74.78
70229;BME280;57617;51.988;5.854;2022-12-29T00:45:59;99524.50;;;13.38;74.38
70229;BME280;57617;51.988;5.854;2022-12-29T00:48:24;99526.13;;;13.39;74.41
70229;BME280;57617;51.988;5.854;2022-12-29T00:51:08;99527.72;;;13.40;74.56
70229;BME280;57617;51.988;5.854;2022-12-29T00:53:34;99511.97;;;13.37;74.44
70229;BME280;57617;51.988;5.854;2022-12-29T00:55:59;99506.19;;;13.38;74.35
70229;BME280;57617;51.988;5.854;2022-12-29T00:58:29;99511.97;;;13.37;75.00
70229;BME280;57617;51.988;5.854;2022-12-29T01:01:06;99487.81;;;13.25;74.31
70229;BME280;57617;51.988;5.854;2022-12-29T01:03:33;99498.03;;;13.38;74.60
70229;BME280;57617;51.988;5.854;2022-12-29T01:06:08;99490.16;;;13.37;74.46
70229;BME280;57617;51.988;5.854;2022-12-29T01:08:35;99478.47;;;13.31;74.64
70229;BME280;57617;51.988;5.854;2022-12-29T01:11:03;99480.91;;;13.33;74.26
70229;BME280;57617;51.988;5.854;2022-12-29T01:13:28;99486.59;;;13.36;74.26
70229;BME280;57617;51.988;5.854;2022-12-29T01:15:54;99486.59;;;13.36;74.81
70229;BME280;57617;51.988;5.854;2022-12-29T01:18:20;99490.44;;;13.35;74.52
70229;BME280;57617;51.988;5.854;2022-12-29T01:20:45;99471.34;;;13.35;74.40
70229;BME280;57617;51.988;5.854;2022-12-29T01:23:11;99476.19;;;13.38;74.37
70229;BME280;57617;51.988;5.854;2022-12-29T01:25:36;99476.50;;;13.37;74.68
70229;BME280;57617;51.988;5.854;2022-12-29T01:28:01;99474.56;;;13.37;74.64
70229;BME280;57617;51.988;5.854;2022-12-29T01:30:27;99475.41;;;13.38;74.42
70229;BME280;57617;51.988;5.854;2022-12-29T01:32:52;99469.41;;;13.36;74.25
70229;BME280;57617;51.988;5.854;2022-12-29T01:35:17;99479.25;;;13.37;74.55
70229;BME280;57617;51.988;5.854;2022-12-29T01:37:43;99451.44;;;13.35;74.54
70229;BME280;57617;51.988;5.854;2022-12-29T01:40:08;99474.63;;;13.32;74.31
70229;BME280;57617;51.988;5.854;2022-12-29T01:42:34;99480.69;;;13.29;74.22
70229;BME280;57617;51.988;5.854;2022-12-29T01:45:09;99464.63;;;13.28;74.52
70229;BME280;57617;51.988;5.854;2022-12-29T01:48:14;99462.69;;;13.28;74.64
70229;BME280;57617;51.988;5.854;2022-12-29T01:50:37;99466.53;;;13.27;74.61
70229;BME280;57617;51.988;5.854;2022-12-29T01:53:09;99460.28;;;13.27;74.37
70229;BME280;57617;51.988;5.854;2022-12-29T01:55:40;99449.09;;;13.23;74.46
70229;BME280;57617;51.988;5.854;2022-12-29T01:58:08;99457.59;;;13.22;74.81
70229;BME280;57617;51.988;5.854;2022-12-29T02:00:34;99460.00;;;13.23;74.97
70229;BME280;57617;51.988;5.854;2022-12-29T02:03:00;99458.13;;;13.24;74.82
70229;BME280;57617;51.988;5.854;2022-12-29T02:05:33;99455.91;;;13.26;74.87
70229;BME280;57617;51.988;5.854;2022-12-29T02:08:02;99447.81;;;13.21;74.91
70229;BME280;57617;51.988;5.854;2022-12-29T02:10:30;99454.81;;;13.27;74.96
70229;BME280;57617;51.988;5.854;2022-12-29T02:12:56;99460.50;;;13.30;74.67
70229;BME280;57617;51.988;5.854;2022-12-29T02:15:54;99459.91;;;13.33;74.78
70229;BME280;57617;51.988;5.854;2022-12-29T02:18:37;99464.56;;;13.33;75.27
70229;BME280;57617;51.988;5.854;2022-12-29T02:24:18;99486.66;;;13.31;75.37
70229;BME280;57617;51.988;5.854;2022-12-29T02:29:59;99482.31;;;13.30;74.92
70229;BME280;57617;51.988;5.854;2022-12-29T02:32:37;99467.06;;;13.29;75.34
70229;BME280;57617;51.988;5.854;2022-12-29T02:35:26;99470.88;;;13.28;75.98
70229;BME280;57617;51.988;5.854;2022-12-29T02:40:51;99456.72;;;13.26;75.50
70229;BME280;57617;51.988;5.854;2022-12-29T02:43:26;99424.81;;;13.27;75.29
70229;BME280;57617;51.988;5.854;2022-12-29T02:46:45;99462.47;;;13.25;74.90
70229;BME280;57617;51.988;5.854;2022-12-29T02:51:27;99441.19;;;13.27;75.31
70229;BME280;57617;51.988;5.854;2022-12-29T02:53:55;99446.31;;;13.28;75.56
70229;BME280;57617;51.988;5.854;2022-12-29T02:56:40;99431.13;;;13.22;75.61
70229;BME280;57617;51.988;5.854;2022-12-29T02:59:06;99460.28;;;13.27;75.35
70229;BME280;57617;51.988;5.854;2022-12-29T03:02:10;99453.72;;;13.28;75.57
70229;BME280;57617;51.988;5.854;2022-12-29T03:13:43;99445.31;;;13.24;75.34
70229;BME280;57617;51.988;5.854;2022-12-29T03:16:44;99430.13;;;13.18;75.42
70229;BME280;57617;51.988;5.854;2022-12-29T03:19:17;99431.50;;;13.16;75.42
70229;BME280;57617;51.988;5.854;2022-12-29T03:21:49;99441.88;;;13.14;75.50
70229;BME280;57617;51.988;5.854;2022-12-29T03:24:42;99429.69;;;13.06;75.47
70229;BME280;57617;51.988;5.854;2022-12-29T03:27:10;99422.91;;;13.04;75.15
70229;BME280;57617;51.988;5.854;2022-12-29T03:29:45;99423.97;;;13.08;75.25
70229;BME280;57617;51.988;5.854;2022-12-29T03:32:13;99426.97;;;13.06;74.79
70229;BME280;57617;51.988;5.854;2022-12-29T03:34:40;99420.13;;;13.09;74.79
70229;BME280;57617;51.988;5.854;2022-12-29T03:37:11;99414.59;;;13.14;75.03
70229;BME280;57617;51.988;5.854;2022-12-29T03:39:38;99409.69;;;13.16;74.68
70229;BME280;57617;51.988;5.854;2022-12-29T03:42:06;99407.19;;;13.19;75.16
70229;BME280;57617;51.988;5.854;2022-12-29T03:44:40;99422.94;;;13.22;74.86
70229;BME280;57617;51.988;5.854;2022-12-29T03:47:06;99428.41;;;13.22;74.73
70229;BME280;57617;51.988;5.854;2022-12-29T03:49:31;99423.50;;;13.24;74.86
70229;BME280;57617;51.988;5.854;2022-12-29T03:51:57;99411.19;;;13.27;74.47
70229;BME280;57617;51.988;5.854;2022-12-29T03:54:22;99422.09;;;13.27;74.47
70229;BME280;57617;51.988;5.854;2022-12-29T03:56:47;99421.00;;;13.28;74.65
70229;BME280;57617;51.988;5.854;2022-12-29T03:59:13;99413.66;;;13.23;74.60
70229;BME280;57617;51.988;5.854;2022-12-29T04:01:38;99427.59;;;13.22;74.32
70229;BME280;57617;51.988;5.854;2022-12-29T04:04:03;99421.00;;;13.28;74.35
70229;BME280;57617;51.988;5.854;2022-12-29T04:06:29;99432.19;;;13.26;74.31
70229;BME280;57617;51.988;5.854;2022-12-29T04:08:54;99424.22;;;13.30;74.54
70229;BME280;57617;51.988;5.854;2022-12-29T04:11:20;99427.22;;;13.28;74.15
70229;BME280;57617;51.988;5.854;2022-12-29T04:13:45;99421.00;;;13.28;74.38
70229;BME280;57617;51.988;5.854;2022-12-29T04:16:11;99433.22;;;13.30;74.37
70229;BME280;57617;51.988;5.854;2022-12-29T04:18:36;99421.84;;;13.23;74.05
70229;BME280;57617;51.988;5.854;2022-12-29T04:21:01;99424.50;;;13.28;73.98
70229;BME280;57617;51.988;5.854;2022-12-29T04:23:33;99428.56;;;13.31;73.86
70229;BME280;57617;51.988;5.854;2022-12-29T04:25:59;99418.75;;;13.30;73.56
70229;BME280;57617;51.988;5.854;2022-12-29T04:28:24;99425.03;;;13.30;73.79
70229;BME280;57617;51.988;5.854;2022-12-29T04:30:50;99418.25;;;13.28;73.97
70229;BME280;57617;51.988;5.854;2022-12-29T04:33:15;99432.13;;;13.31;73.50
70229;BME280;57617;51.988;5.854;2022-12-29T04:35:42;99429.16;;;13.28;73.04
70229;BME280;57617;51.988;5.854;2022-12-29T04:38:07;99433.28;;;13.25;73.24
70229;BME280;57617;51.988;5.854;2022-12-29T04:40:33;99432.25;;;13.21;72.80
70229;BME280;57617;51.988;5.854;2022-12-29T04:42:58;99438.81;;;13.20;73.35
70229;BME280;57617;51.988;5.854;2022-12-29T04:45:23;99451.38;;;13.16;73.17
70229;BME280;57617;51.988;5.854;2022-12-29T04:47:49;99453.31;;;13.16;73.26
70229;BME280;57617;51.988;5.854;2022-12-29T04:50:14;99456.34;;;13.14;73.05
70229;BME280;57617;51.988;5.854;2022-12-29T04:52:39;99455.78;;;13.12;73.03
70229;BME280;57617;51.988;5.854;2022-12-29T04:55:05;99448.22;;;13.09;73.03
70229;BME280;57617;51.988;5.854;2022-12-29T04:57:31;99454.16;;;13.11;72.45
70229;BME280;57617;51.988;5.854;2022-12-29T04:59:56;99448.22;;;13.09;72.65
70229;BME280;57617;51.988;5.854;2022-12-29T05:02:22;99464.84;;;13.08;72.57
70229;BME280;57617;51.988;5.854;2022-12-29T05:04:47;99471.19;;;13.03;72.23
70229;BME280;57617;51.988;5.854;2022-12-29T05:07:13;99466.81;;;13.02;72.64
70229;BME280;57617;51.988;5.854;2022-12-29T05:09:38;99477.44;;;13.04;71.57
70229;BME280;57617;51.988;5.854;2022-12-29T05:12:03;99476.38;;;13.00;71.53
70229;BME280;57617;51.988;5.854;2022-12-29T05:14:29;99472.84;;;12.99;71.83
70229;BME280;57617;51.988;5.854;2022-12-29T05:16:54;99477.78;;;12.92;71.76
70229;BME280;57617;51.988;5.854;2022-12-29T05:19:19;99481.34;;;12.93;70.89
70229;BME280;57617;51.988;5.854;2022-12-29T05:21:45;99489.22;;;12.94;71.64
70229;BME280;57617;51.988;5.854;2022-12-29T05:24:10;99491.19;;;12.89;71.11
70229;BME280;57617;51.988;5.854;2022-12-29T05:26:35;99492.00;;;12.89;71.40
70229;BME280;57617;51.988;5.854;2022-12-29T05:29:01;99492.00;;;12.89;71.05
70229;BME280;57617;51.988;5.854;2022-12-29T05:31:26;99495.25;;;12.91;71.32
70229;BME280;57617;51.988;5.854;2022-12-29T05:33:52;99487.13;;;12.86;70.88
70229;BME280;57617;51.988;5.854;2022-12-29T05:36:17;99508.34;;;12.89;71.08
70229;BME280;57617;51.988;5.854;2022-12-29T05:38:42;99503.19;;;12.88;71.60
70229;BME280;57617;51.988;5.854;2022-12-29T05:41:08;99510.31;;;12.84;71.37
70229;BME280;57617;51.988;5.854;2022-12-29T05:43:33;99519.34;;;12.79;71.64
70229;BME280;57617;51.988;5.854;2022-12-29T05:45:59;99512.84;;;12.75;71.57
70229;BME280;57617;51.988;5.854;2022-12-29T05:48:24;99513.44;;;12.72;72.11
70229;BME280;57617;51.988;5.854;2022-12-29T05:50:50;99517.28;;;12.66;71.86
70229;BME280;57617;51.988;5.854;2022-12-29T05:53:16;99506.97;;;12.63;71.76
70229;BME280;57617;51.988;5.854;2022-12-29T05:55:42;99514.91;;;12.60;72.13
70229;BME280;57617;51.988;5.854;2022-12-29T05:58:08;99524.44;;;12.57;72.03
70229;BME280;57617;51.988;5.854;2022-12-29T06:00:33;99519.28;;;12.56;71.39
70229;BME280;57617;51.988;5.854;2022-12-29T06:02:59;99520.13;;;12.51;71.89
70229;BME280;57617;51.988;5.854;2022-12-29T06:05:24;99520.13;;;12.51;72.18
70229;BME280;57617;51.988;5.854;2022-12-29T06:07:49;99507.59;;;12.50;72.10
70229;BME280;57617;51.988;5.854;2022-12-29T06:10:15;99505.97;;;12.49;71.79
70229;BME280;57617;51.988;5.854;2022-12-29T06:12:40;99508.72;;;12.49;72.32
70229;BME280;57617;51.988;5.854;2022-12-29T06:15:06;99518.47;;;12.55;71.66
70229;BME280;57617;51.988;5.854;2022-12-29T06:17:31;99525.28;;;12.53;72.09
70229;BME280;57617;51.988;5.854;2022-12-29T06:19:57;99535.38;;;12.52;71.74
70229;BME280;57617;51.988;5.854;2022-12-29T06:22:22;99526.66;;;12.50;71.93
70229;BME280;57617;51.988;5.854;2022-12-29T06:24:47;99529.13;;;12.52;71.62
70229;BME280;57617;51.988;5.854;2022-12-29T06:27:13;99532.13;;;12.50;71.62
70229;BME280;57617;51.988;5.854;2022-12-29T06:29:39;99522.09;;;12.46;71.56
70229;BME280;57617;51.988;5.854;2022-12-29T06:32:06;99538.94;;;12.48;71.54
70229;BME280;57617;51.988;5.854;2022-12-29T06:34:31;99536.50;;;12.46;70.89
70229;BME280;57617;51.988;5.854;2022-12-29T06:36:56;99536.22;;;12.48;71.24
70229;BME280;57617;51.988;5.854;2022-12-29T06:39:22;99537.59;;;12.45;70.28
70229;BME280;57617;51.988;5.854;2022-12-29T06:41:47;99538.69;;;12.44;71.12
70229;BME280;57617;51.988;5.854;2022-12-29T06:44:12;99537.88;;;12.44;71.25
70229;BME280;57617;51.988;5.854;2022-12-29T06:46:38;99544.66;;;12.46;70.78
70229;BME280;57617;51.988;5.854;2022-12-29T06:49:03;99532.97;;;12.46;70.90
70229;BME280;57617;51.988;5.854;2022-12-29T06:51:28;99538.47;;;12.41;70.35
70229;BME280;57617;51.988;5.854;2022-12-29T06:53:54;99535.97;;;12.44;70.61
70229;BME280;57617;51.988;5.854;2022-12-29T06:56:19;99546.06;;;12.44;70.28
70229;BME280;57617;51.988;5.854;2022-12-29T06:58:44;99534.88;;;12.45;70.31
70229;BME280;57617;51.988;5.854;2022-12-29T07:01:09;99534.88;;;12.45;70.10
70229;BME280;57617;51.988;5.854;2022-12-29T07:03:35;99536.53;;;12.41;70.30
70229;BME280;57617;51.988;5.854;2022-12-29T07:06:00;99539.50;;;12.50;70.30
70229;BME280;57617;51.988;5.854;2022-12-29T07:08:25;99543.56;;;12.52;70.31
70229;BME280;57617;51.988;5.854;2022-12-29T07:10:51;99545.47;;;12.52;69.86
70229;BME280;57617;51.988;5.854;2022-12-29T07:13:16;99554.16;;;12.54;70.18
70229;BME280;57617;51.988;5.854;2022-12-29T07:15:41;99547.63;;;12.55;69.74
70229;BME280;57617;51.988;5.854;2022-12-29T07:18:07;99551.69;;;12.57;70.09
70229;BME280;57617;51.988;5.854;2022-12-29T07:20:32;99547.88;;;12.58;69.28
70229;BME280;57617;51.988;5.854;2022-12-29T07:22:58;99544.59;;;12.56;69.26
70229;BME280;57617;51.988;5.854;2022-12-29T07:25:23;99551.16;;;12.55;69.42
70229;BME280;57617;51.988;5.854;2022-12-29T07:27:49;99554.41;;;12.57;69.22
70229;BME280;57617;51.988;5.854;2022-12-29T07:30:15;99554.41;;;12.57;69.67
70229;BME280;57617;51.988;5.854;2022-12-29T07:32:40;99565.81;;;12.59;69.55
70229;BME280;57617;51.988;5.854;2022-12-29T07:35:06;99554.41;;;12.57;69.21
70229;BME280;57617;51.988;5.854;2022-12-29T07:37:32;99564.22;;;12.58;69.31
70229;BME280;57617;51.988;5.854;2022-12-29T07:39:57;99566.09;;;12.58;69.13
70229;BME280;57617;51.988;5.854;2022-12-29T07:42:22;99564.72;;;12.60;69.34
70229;BME280;57617;51.988;5.854;2022-12-29T07:44:48;99575.91;;;12.59;68.89
70229;BME280;57617;51.988;5.854;2022-12-29T07:47:13;99576.22;;;12.57;69.33
70229;BME280;57617;51.988;5.854;2022-12-29T07:49:38;99582.69;;;12.61;69.34
70229;BME280;57617;51.988;5.854;2022-12-29T07:52:04;99589.25;;;12.60;68.98
70229;BME280;57617;51.988;5.854;2022-12-29T07:54:29;99601.75;;;12.61;69.10
70229;BME280;57617;51.988;5.854;2022-12-29T07:56:54;99595.50;;;12.61;68.99
70229;BME280;57617;51.988;5.854;2022-12-29T07:59:20;99603.41;;;12.62;68.91
70229;BME280;57617;51.988;5.854;2022-12-29T08:01:45;99603.44;;;12.57;68.34
70229;BME280;57617;51.988;5.854;2022-12-29T08:04:11;99616.44;;;12.65;68.81
70229;BME280;57617;51.988;5.854;2022-12-29T08:06:36;99608.84;;;12.62;68.89
70229;BME280;57617;51.988;5.854;2022-12-29T08:09:03;99611.84;;;12.61;68.23
70229;BME280;57617;51.988;5.854;2022-12-29T08:11:28;99608.91;;;12.57;68.48
70229;BME280;57617;51.988;5.854;2022-12-29T08:13:53;99605.59;;;12.60;68.32
70229;BME280;57617;51.988;5.854;2022-12-29T08:16:19;99619.25;;;12.55;68.16
70229;BME280;57617;51.988;5.854;2022-12-29T08:18:44;99616.50;;;12.55;68.23
70229;BME280;57617;51.988;5.854;2022-12-29T08:21:10;99630.97;;;12.56;68.26
70229;BME280;57617;51.988;5.854;2022-12-29T08:23:35;99620.06;;;12.56;68.09
70229;BME280;57617;51.988;5.854;2022-12-29T08:26:02;99619.50;;;12.54;67.20
70229;BME280;57617;51.988;5.854;2022-12-29T08:28:28;99614.03;;;12.59;67.72
70229;BME280;57617;51.988;5.854;2022-12-29T08:30:57;99625.75;;;12.59;67.71
70229;BME280;57617;51.988;5.854;2022-12-29T08:33:22;99618.09;;;12.61;66.49
70229;BME280;57617;51.988;5.854;2022-12-29T08:35:48;99619.75;;;12.62;67.66
70229;BME280;57617;51.988;5.854;2022-12-29T08:38:13;99620.78;;;12.66;67.46
70229;BME280;57617;51.988;5.854;2022-12-29T08:40:38;99624.34;;;12.67;67.18
70229;BME280;57617;51.988;5.854;2022-12-29T08:43:03;99611.78;;;12.71;67.31
70229;BME280;57617;51.988;5.854;2022-12-29T08:45:29;99605.78;;;12.69;66.26
70229;BME280;57617;51.988;5.854;2022-12-29T08:47:54;99614.78;;;12.69;67.25
70229;BME280;57617;51.988;5.854;2022-12-29T08:50:20;99611.56;;;12.67;66.56
70229;BME280;57617;51.988;5.854;2022-12-29T08:52:45;99626.22;;;12.71;66.96
70229;BME280;57617;51.988;5.854;2022-12-29T08:55:10;99616.13;;;12.72;66.71
70229;BME280;57617;51.988;5.854;2022-12-29T08:57:36;99616.41;;;12.70;66.53
70229;BME280;57617;51.988;5.854;2022-12-29T09:00:03;99616.97;;;12.72;67.06
70229;BME280;57617;51.988;5.854;2022-12-29T09:02:29;99608.25;;;12.70;66.91
70229;BME280;57617;51.988;5.854;2022-12-29T09:04:54;99613.13;;;12.73;66.72
70229;BME280;57617;51.988;5.854;2022-12-29T09:07:22;99597.94;;;12.67;66.38
70229;BME280;57617;51.988;5.854;2022-12-29T09:09:48;99615.31;;;12.71;66.59
70229;BME280;57617;51.988;5.854;2022-12-29T09:12:13;99609.84;;;12.71;66.61
70229;BME280;57617;51.988;5.854;2022-12-29T09:14:38;99614.28;;;12.67;66.88
70229;BME280;57617;51.988;5.854;2022-12-29T09:17:04;99615.91;;;12.68;66.81
70229;BME280;57617;51.988;5.854;2022-12-29T09:19:48;99615.06;;;12.68;66.92
70229;BME280;57617;51.988;5.854;2022-12-29T09:22:13;99626.53;;;12.65;67.41
70229;BME280;57617;51.988;5.854;2022-12-29T09:24:38;99620.81;;;12.61;67.23
70229;BME280;57617;51.988;5.854;2022-12-29T09:27:04;99627.34;;;12.65;67.01
70229;BME280;57617;51.988;5.854;2022-12-29T09:29:29;99631.16;;;12.64;67.09
70229;BME280;57617;51.988;5.854;2022-12-29T09:31:54;99639.63;;;12.63;67.11
70229;BME280;57617;51.988;5.854;2022-12-29T09:34:20;99647.53;;;12.59;67.47
70229;BME280;57617;51.988;5.854;2022-12-29T09:36:45;99643.47;;;12.57;67.60
70229;BME280;57617;51.988;5.854;2022-12-29T09:39:12;99646.75;;;12.54;67.47
70229;BME280;57617;51.988;5.854;2022-12-29T09:41:43;99656.56;;;12.55;67.15
70229;BME280;57617;51.988;5.854;2022-12-29T09:44:23;99657.38;;;12.55;67.12
70229;BME280;57617;51.988;5.854;2022-12-29T09:46:52;99648.09;;;12.56;67.62
70229;BME280;57617;51.988;5.854;2022-12-29T09:49:32;99669.09;;;12.56;67.40
70229;BME280;57617;51.988;5.854;2022-12-29T09:52:10;99664.44;;;12.56;68.11
70229;BME280;57617;51.988;5.854;2022-12-29T09:54:41;99675.09;;;12.53;67.53
70229;BME280;57617;51.988;5.854;2022-12-29T09:57:24;99688.97;;;12.51;67.83
70229;BME280;57617;51.988;5.854;2022-12-29T09:59:55;99689.56;;;12.48;68.11
70229;BME280;57617;51.988;5.854;2022-12-29T10:02:29;99699.09;;;12.46;68.32
70229;BME280;57617;51.988;5.854;2022-12-29T10:04:56;99695.31;;;12.42;68.36
70229;BME280;57617;51.988;5.854;2022-12-29T10:07:33;99711.41;;;12.38;69.13
70229;BME280;57617;51.988;5.854;2022-12-29T10:23:49;99719.38;;;12.20;70.39
70229;BME280;57617;51.988;5.854;2022-12-29T10:26:25;99725.63;;;12.20;70.65
70229;BME280;57617;51.988;5.854;2022-12-29T10:28:56;99724.00;;;12.19;70.29
70229;BME280;57617;51.988;5.854;2022-12-29T10:31:25;99717.75;;;12.14;70.26
70229;BME280;57617;51.988;5.854;2022-12-29T10:33:58;99737.63;;;12.14;70.78
70229;BME280;57617;51.988;5.854;2022-12-29T10:36:39;99726.47;;;12.11;70.86
70229;BME280;57617;51.988;5.854;2022-12-29T10:39:13;99742.28;;;12.09;71.05
70229;BME280;57617;51.988;5.854;2022-12-29T10:41:55;99747.72;;;12.09;71.68
70229;BME280;57617;51.988;5.854;2022-12-29T10:44:27;99750.72;;;12.02;72.00
70229;BME280;57617;51.988;5.854;2022-12-29T10:46:59;99754.53;;;12.01;72.19
70229;BME280;57617;51.988;5.854;2022-12-29T10:49:28;99766.78;;;12.04;71.55
70229;BME280;57617;51.988;5.854;2022-12-29T10:51:57;99771.66;;;12.02;72.10
70229;BME280;57617;51.988;5.854;2022-12-29T10:54:32;99766.50;;;11.95;72.82
70229;BME280;57617;51.988;5.854;2022-12-29T10:57:37;99771.16;;;11.95;72.67
70229;BME280;57617;51.988;5.854;2022-12-29T11:00:12;99776.84;;;11.93;72.90
70229;BME280;57617;51.988;5.854;2022-12-29T11:02:49;99778.22;;;11.96;72.44
70229;BME280;57617;51.988;5.854;2022-12-29T11:08:08;99791.28;;;11.99;72.87
70229;BME280;57617;51.988;5.854;2022-12-29T11:13:11;99801.88;;;12.00;73.02
70229;BME280;57617;51.988;5.854;2022-12-29T11:15:45;99807.88;;;12.02;73.26
70229;BME280;57617;51.988;5.854;2022-12-29T11:20:47;99809.75;;;12.07;72.49
70229;BME280;57617;51.988;5.854;2022-12-29T11:23:33;99809.22;;;12.10;72.52
70229;BME280;57617;51.988;5.854;2022-12-29T11:28:35;99817.66;;;12.13;72.58
70229;BME280;57617;51.988;5.854;2022-12-29T11:31:03;99820.38;;;12.13;72.42
70229;BME280;57617;51.988;5.854;2022-12-29T11:33:34;99809.75;;;12.12;72.34
70229;BME280;57617;51.988;5.854;2022-12-29T11:38:37;99823.91;;;12.24;72.59
70229;BME280;57617;51.988;5.854;2022-12-29T11:41:05;99829.88;;;12.26;72.56
70229;BME280;57617;51.988;5.854;2022-12-29T11:43:34;99806.25;;;12.11;72.82
70229;BME280;57617;51.988;5.854;2022-12-29T11:46:02;99818.75;;;12.12;72.97
70229;BME280;57617;51.988;5.854;2022-12-29T11:48:47;99838.88;;;12.26;72.78
70229;BME280;57617;51.988;5.854;2022-12-29T11:51:21;99847.56;;;12.33;72.58
70229;BME280;57617;51.988;5.854;2022-12-29T11:53:50;99835.84;;;12.33;72.22
70229;BME280;57617;51.988;5.854;2022-12-29T11:56:20;99842.94;;;12.34;72.90
70229;BME280;57617;51.988;5.854;2022-12-29T11:58:49;99839.94;;;12.35;72.58
70229;BME280;57617;51.988;5.854;2022-12-29T12:01:39;99847.56;;;12.38;71.98
70229;BME280;57617;51.988;5.854;2022-12-29T12:04:12;99855.97;;;12.42;71.77
70229;BME280;57617;51.988;5.854;2022-12-29T12:06:53;99846.19;;;12.36;71.81
70229;BME280;57617;51.988;5.854;2022-12-29T12:09:26;99849.44;;;12.38;71.88
70229;BME280;57617;51.988;5.854;2022-12-29T12:11:54;99849.19;;;12.39;72.14
70229;BME280;57617;51.988;5.854;2022-12-29T12:14:27;99842.91;;;12.39;71.39
70229;BME280;57617;51.988;5.854;2022-12-29T12:16:59;99849.19;;;12.39;71.77
70229;BME280;57617;51.988;5.854;2022-12-29T12:22:31;99861.69;;;12.50;70.76
70229;BME280;57617;51.988;5.854;2022-12-29T12:27:40;99879.38;;;12.53;69.97
70229;BME280;57617;51.988;5.854;2022-12-29T12:30:17;99875.84;;;12.57;70.95
70229;BME280;57617;51.988;5.854;2022-12-29T12:33:04;99879.38;;;12.58;70.49
70229;BME280;57617;51.988;5.854;2022-12-29T12:35:46;99879.94;;;12.60;70.47
70229;BME280;57617;51.988;5.854;2022-12-29T12:55:29;99885.00;;;12.86;68.71
70229;BME280;57617;51.988;5.854;2022-12-29T13:00:22;99898.63;;;12.86;69.67
70229;BME280;57617;51.988;5.854;2022-12-29T13:03:13;99895.38;;;12.79;69.31
70229;BME280;57617;51.988;5.854;2022-12-29T13:06:03;99897.59;;;12.77;68.97
70229;BME280;57617;51.988;5.854;2022-12-29T13:14:37;99904.69;;;12.73;69.88
70229;BME280;57617;51.988;5.854;2022-12-29T13:17:25;99908.78;;;12.71;69.31
70229;BME280;57617;51.988;5.854;2022-12-29T13:23:16;99919.94;;;12.69;69.43
70229;BME280;57617;51.988;5.854;2022-12-29T13:28:51;99917.50;;;12.63;69.18
70229;BME280;57617;51.988;5.854;2022-12-29T13:31:43;99886.47;;;12.44;69.67
70229;BME280;57617;51.988;5.854;2022-12-29T13:34:34;99913.16;;;12.57;69.05
70229;BME280;57617;51.988;5.854;2022-12-29T13:37:11;99922.44;;;12.56;69.33
70229;BME280;57617;51.988;5.854;2022-12-29T13:39:42;99925.69;;;12.53;69.55
70229;BME280;57617;51.988;5.854;2022-12-29T13:42:09;99921.06;;;12.53;69.38
70229;BME280;57617;51.988;5.854;2022-12-29T13:44:57;99926.78;;;12.57;69.79
70229;BME280;57617;51.988;5.854;2022-12-29T13:47:33;99934.94;;;12.62;69.41
70229;BME280;57617;51.988;5.854;2022-12-29T13:50:03;99928.97;;;12.60;69.35
70229;BME280;57617;51.988;5.854;2022-12-29T13:52:55;99930.84;;;12.59;69.08
70229;BME280;57617;51.988;5.854;2022-12-29T13:55:36;99936.31;;;12.59;69.02
70229;BME280;57617;51.988;5.854;2022-12-29T14:00:56;99933.56;;;12.59;68.96
70229;BME280;57617;51.988;5.854;2022-12-29T14:03:48;99943.94;;;12.62;68.52
70229;BME280;57617;51.988;5.854;2022-12-29T14:06:27;99942.56;;;12.65;69.06
70229;BME280;57617;51.988;5.854;2022-12-29T14:08:56;99944.75;;;12.63;69.07
70229;BME280;57617;51.988;5.854;2022-12-29T14:11:29;99946.94;;;12.61;68.70
70229;BME280;57617;51.988;5.854;2022-12-29T14:13:55;99953.19;;;12.61;69.31
70229;BME280;57617;51.988;5.854;2022-12-29T14:16:26;99955.66;;;12.53;69.10
70229;BME280;57617;51.988;5.854;2022-12-29T14:18:52;99951.56;;;12.50;68.94
70229;BME280;57617;51.988;5.854;2022-12-29T14:21:21;99970.91;;;12.49;68.79
70229;BME280;57617;51.988;5.854;2022-12-29T14:23:50;99930.88;;;12.19;68.61
70229;BME280;57617;51.988;5.854;2022-12-29T14:26:32;99972.28;;;12.36;68.61
70229;BME280;57617;51.988;5.854;2022-12-29T14:31:56;99976.09;;;12.25;68.53
70229;BME280;57617;51.988;5.854;2022-12-29T14:39:41;99977.16;;;12.09;68.23
70229;BME280;57617;51.988;5.854;2022-12-29T14:44:49;99976.59;;;11.92;69.37
70229;BME280;57617;51.988;5.854;2022-12-29T14:50:02;99972.25;;;11.91;69.63
70229;BME280;57617;51.988;5.854;2022-12-29T14:52:30;99984.22;;;11.90;69.75
70229;BME280;57617;51.988;5.854;2022-12-29T14:54:59;99977.69;;;11.86;69.54
70229;BME280;57617;51.988;5.854;2022-12-29T14:57:37;99980.66;;;11.85;70.38
70229;BME280;57617;51.988;5.854;2022-12-29T15:00:08;99981.22;;;11.87;70.02